sensor_id;sensor_type;location;lat;lon;timestamp;pressure;altitude;pressure_sealevel;temperature;humidity
19884;BME280;10104;50.732;10.174;2023-02-18T00:00:31;98346.09;;;10.10;100.00
19884;BME280;10104;50.732;10.174;2023-02-18T00:02:53;98356.19;;;10.06;100.00
19884;BME280;10104;50.732;10.174;2023-02-18T00:05:16;98353.88;;;10.11;100.00
19884;BME280;10104;50.732;10.174;2023-02-18T00:07:39;98365.91;;;10.14;100.00
19884;BME280;10104;50.732;10.174;2023-02-18T00:10:03;98360.44;;;10.15;100.00
19884;BME280;10104;50.732;10.174;2023-02-18T00:12:25;98354.19;;;10.08;100.00
19884;BME280;10104;50.732;10.174;2023-02-18T00:14:46;98367.59;;;10.07;100.00
19884;BME280;10104;50.732;10.174;2023-02-18T00:17:08;98358.50;;;10.18;100.00
19884;BME280;10104;50.732;10.174;2023-02-18T00:19:29;98346.78;;;10.04;100.00
19884;BME280;10104;50.732;10.174;2023-02-18T00:21:51;98350.56;;;10.09;100.00
19884;BME280;10104;50.732;10.174;2023-02-18T00:24:14;98341.63;;;10.10;100.00
19884;BME280;10104;50.732;10.174;2023-02-18T00:26:36;98354.03;;;10.10;100.00
19884;BME280;10104;50.732;10.174;2023-02-18T00:28:58;98357.34;;;10.12;100.00
19884;BME280;10104;50.732;10.174;2023-02-18T00:31:26;98353.38;;;10.08;100.00
19884;BME280;10104;50.732;10.174;2023-02-18T00:33:47;98354.69;;;10.12;100.00
19884;BME280;10104;50.732;10.174;2023-02-18T00:36:14;98351.38;;;10.10;100.00
19884;BME280;10104;50.732;10.174;2023-02-18T00:38:36;98355.16;;;10.15;100.00
19884;BME280;10104;50.732;10.174;2023-02-18T00:40:58;98349.41;;;10.12;100.00
19884;BME280;10104;50.732;10.174;2023-02-18T00:43:20;98345.41;;;10.16;100.00
19884;BME280;10104;50.732;10.174;2023-02-18T00:45:41;98365.75;;;10.15;100.00
19884;BME280;10104;50.732;10.174;2023-02-18T00:48:03;98359.97;;;10.12;100.00
19884;BME280;10104;50.732;10.174;2023-02-18T00:50:24;98354.69;;;10.12;100.00
19884;BME280;10104;50.732;10.174;2023-02-18T00:52:46;98366.91;;;10.13;100.00
19884;BME280;10104;50.732;10.174;2023-02-18T00:55:07;98352.53;;;10.07;100.00
19884;BME280;10104;50.732;10.174;2023-02-18T00:57:29;98359.50;;;10.08;100.00
19884;BME280;10104;50.732;10.174;2023-02-18T00:59:50;98362.16;;;10.00;100.00
19884;BME280;10104;50.732;10.174;2023-02-18T01:02:12;98356.72;;;10.02;100.00
19884;BME280;10104;50.732;10.174;2023-02-18T01:04:33;98355.41;;;9.98;100.00
19884;BME280;10104;50.732;10.174;2023-02-18T01:06:55;98362.53;;;9.97;100.00
19884;BME280;10104;50.732;10.174;2023-02-18T01:09:16;98350.13;;;9.98;100.00
19884;BME280;10104;50.732;10.174;2023-02-18T01:11:38;98353.22;;;10.01;100.00
19884;BME280;10104;50.732;10.174;2023-02-18T01:13:59;98351.44;;;9.94;100.00
19884;BME280;10104;50.732;10.174;2023-02-18T01:16:21;98353.41;;;10.00;100.00
19884;BME280;10104;50.732;10.174;2023-02-18T01:18:43;98348.59;;;10.03;100.00
19884;BME280;10104;50.732;10.174;2023-02-18T01:21:06;98350.97;;;9.90;100.00
19884;BME280;10104;50.732;10.174;2023-02-18T01:23:29;98348.50;;;9.89;100.00
19884;BME280;10104;50.732;10.174;2023-02-18T01:25:50;98356.09;;;9.92;100.00
19884;BME280;10104;50.732;10.174;2023-02-18T01:28:13;98343.41;;;9.87;100.00
19884;BME280;10104;50.732;10.174;2023-02-18T01:30:35;98356.72;;;10.02;100.00
19884;BME280;10104;50.732;10.174;2023-02-18T01:32:57;98359.66;;;10.07;100.00
19884;BME280;10104;50.732;10.174;2023-02-18T01:35:19;98350.03;;;10.14;100.00
19884;BME280;10104;50.732;10.174;2023-02-18T01:37:40;98342.31;;;10.04;100.00
19884;BME280;10104;50.732;10.174;2023-02-18T01:40:03;98357.13;;;10.13;100.00
19884;BME280;10104;50.732;10.174;2023-02-18T01:42:27;98352.50;;;10.15;100.00
19884;BME280;10104;50.732;10.174;2023-02-18T01:44:49;98360.63;;;10.14;100.00
19884;BME280;10104;50.732;10.174;2023-02-18T01:47:10;98352.03;;;10.12;100.00
19884;BME280;10104;50.732;10.174;2023-02-18T01:49:34;98360.31;;;10.09;100.00
19884;BME280;10104;50.732;10.174;2023-02-18T01:51:59;98356.19;;;10.06;100.00
19884;BME280;10104;50.732;10.174;2023-02-18T01:54:32;98358.50;;;10.09;100.00
19884;BME280;10104;50.732;10.174;2023-02-18T01:57:10;98356.84;;;10.08;100.00
19884;BME280;10104;50.732;10.174;2023-02-18T01:59:44;98356.66;;;10.18;100.00
19884;BME280;10104;50.732;10.174;2023-02-18T02:02:10;98355.69;;;10.11;100.00
19884;BME280;10104;50.732;10.174;2023-02-18T02:04:33;98353.03;;;10.11;100.00
19884;BME280;10104;50.732;10.174;2023-02-18T02:06:55;98339.28;;;10.15;100.00
19884;BME280;10104;50.732;10.174;2023-02-18T02:09:18;98330.38;;;10.08;100.00
19884;BME280;10104;50.732;10.174;2023-02-18T02:14:32;98335.50;;;10.10;100.00
19884;BME280;10104;50.732;10.174;2023-02-18T02:17:03;98340.84;;;10.02;100.00
19884;BME280;10104;50.732;10.174;2023-02-18T02:27:25;98346.81;;;9.96;100.00
19884;BME280;10104;50.732;10.174;2023-02-18T02:30:23;98362.00;;;10.02;100.00
19884;BME280;10104;50.732;10.174;2023-02-18T02:35:24;98369.94;;;10.02;100.00
19884;BME280;10104;50.732;10.174;2023-02-18T02:37:55;98374.69;;;10.06;100.00
19884;BME280;10104;50.732;10.174;2023-02-18T02:40:26;98358.78;;;10.14;100.00
19884;BME280;10104;50.732;10.174;2023-02-18T02:48:05;98359.09;;;10.28;100.00
19884;BME280;10104;50.732;10.174;2023-02-18T02:50:42;98348.38;;;10.21;100.00
19884;BME280;10104;50.732;10.174;2023-02-18T02:53:12;98347.34;;;10.30;100.00
19884;BME280;10104;50.732;10.174;2023-02-18T02:55:34;98349.84;;;10.24;100.00
19884;BME280;10104;50.732;10.174;2023-02-18T02:57:56;98348.66;;;10.26;100.00
19884;BME280;10104;50.732;10.174;2023-02-18T03:00:36;98347.84;;;10.26;100.00
19884;BME280;10104;50.732;10.174;2023-02-18T03:03:20;98356.28;;;10.29;100.00
19884;BME280;10104;50.732;10.174;2023-02-18T03:11:02;98343.19;;;10.28;100.00
19884;BME280;10104;50.732;10.174;2023-02-18T03:19:26;98343.38;;;10.26;100.00
19884;BME280;10104;50.732;10.174;2023-02-18T03:21:32;98341.34;;;10.36;100.00
19884;BME280;10104;50.732;10.174;2023-02-18T03:24:00;98350.09;;;10.37;100.00
19884;BME280;10104;50.732;10.174;2023-02-18T03:26:23;98342.03;;;10.30;100.00
19884;BME280;10104;50.732;10.174;2023-02-18T03:28:48;98342.97;;;10.37;100.00
19884;BME280;10104;50.732;10.174;2023-02-18T03:31:15;98338.25;;;10.25;100.00
19884;BME280;10104;50.732;10.174;2023-02-18T03:33:45;98334.97;;;10.23;100.00
19884;BME280;10104;50.732;10.174;2023-02-18T03:36:08;98347.00;;;10.25;100.00
19884;BME280;10104;50.732;10.174;2023-02-18T03:41:04;98342.41;;;10.19;100.00
19884;BME280;10104;50.732;10.174;2023-02-18T03:43:27;98355.78;;;10.26;100.00
19884;BME280;10104;50.732;10.174;2023-02-18T03:45:49;98345.56;;;10.23;100.00
19884;BME280;10104;50.732;10.174;2023-02-18T03:48:11;98357.31;;;10.20;100.00
19884;BME280;10104;50.732;10.174;2023-02-18T03:50:32;98342.75;;;10.24;100.00
19884;BME280;10104;50.732;10.174;2023-02-18T03:52:54;98343.91;;;10.13;100.00
19884;BME280;10104;50.732;10.174;2023-02-18T03:55:15;98333.78;;;10.25;100.00
19884;BME280;10104;50.732;10.174;2023-02-18T03:57:37;98329.03;;;10.12;100.00
19884;BME280;10104;50.732;10.174;2023-02-18T03:59:58;98328.69;;;10.15;100.00
19884;BME280;10104;50.732;10.174;2023-02-18T04:02:20;98335.59;;;10.25;100.00
19884;BME280;10104;50.732;10.174;2023-02-18T04:04:42;98329.44;;;10.32;100.00
19884;BME280;10104;50.732;10.174;2023-02-18T04:07:03;98328.84;;;10.22;100.00
19884;BME280;10104;50.732;10.174;2023-02-18T04:09:24;98331.00;;;10.19;100.00
19884;BME280;10104;50.732;10.174;2023-02-18T04:11:46;98332.34;;;10.14;100.00
19884;BME280;10104;50.732;10.174;2023-02-18T04:14:08;98331.19;;;10.17;100.00
19884;BME280;10104;50.732;10.174;2023-02-18T04:16:30;98321.44;;;10.18;100.00
19884;BME280;10104;50.732;10.174;2023-02-18T04:18:51;98324.69;;;10.28;100.00
19884;BME280;10104;50.732;10.174;2023-02-18T04:21:13;98323.25;;;10.17;100.00
19884;BME280;10104;50.732;10.174;2023-02-18T04:23:34;98319.78;;;10.17;100.00
19884;BME280;10104;50.732;10.174;2023-02-18T04:25:56;98304.59;;;10.10;100.00
19884;BME280;10104;50.732;10.174;2023-02-18T04:28:17;98307.06;;;10.12;100.00
19884;BME280;10104;50.732;10.174;2023-02-18T04:30:39;98297.63;;;10.18;100.00
19884;BME280;10104;50.732;10.174;2023-02-18T04:33:01;98300.41;;;10.16;100.00
19884;BME280;10104;50.732;10.174;2023-02-18T04:35:22;98301.41;;;10.15;100.00
19884;BME280;10104;50.732;10.174;2023-02-18T04:37:44;98305.22;;;10.12;100.00
19884;BME280;10104;50.732;10.174;2023-02-18T04:40:06;98299.59;;;10.15;100.00
19884;BME280;10104;50.732;10.174;2023-02-18T04:42:28;98296.28;;;10.13;100.00
19884;BME280;10104;50.732;10.174;2023-02-18T04:44:49;98290.16;;;10.13;100.00
19884;BME280;10104;50.732;10.174;2023-02-18T04:47:11;98284.88;;;10.13;100.00
19884;BME280;10104;50.732;10.174;2023-02-18T04:49:33;98279.56;;;10.13;100.00
19884;BME280;10104;50.732;10.174;2023-02-18T04:51:54;98277.75;;;10.13;100.00
19884;BME280;10104;50.732;10.174;2023-02-18T04:54:16;98270.81;;;10.12;100.00
19884;BME280;10104;50.732;10.174;2023-02-18T04:56:37;98267.81;;;10.15;100.00
19884;BME280;10104;50.732;10.174;2023-02-18T04:58:59;98288.34;;;10.22;100.00
19884;BME280;10104;50.732;10.174;2023-02-18T05:01:20;98277.28;;;10.18;100.00
19884;BME280;10104;50.732;10.174;2023-02-18T05:03:42;98281.22;;;10.14;100.00
19884;BME280;10104;50.732;10.174;2023-02-18T05:06:06;98268.66;;;10.16;100.00
19884;BME280;10104;50.732;10.174;2023-02-18T05:08:28;98264.41;;;10.07;100.00
19884;BME280;10104;50.732;10.174;2023-02-18T05:10:49;98264.41;;;10.07;100.00
19884;BME280;10104;50.732;10.174;2023-02-18T05:13:11;98251.50;;;10.12;100.00
19884;BME280;10104;50.732;10.174;2023-02-18T05:15:32;98256.19;;;10.02;100.00
19884;BME280;10104;50.732;10.174;2023-02-18T05:17:54;98261.00;;;9.98;100.00
19884;BME280;10104;50.732;10.174;2023-02-18T05:20:15;98266.41;;;10.05;100.00
19884;BME280;10104;50.732;10.174;2023-02-18T05:22:37;98260.50;;;9.95;100.00
19884;BME280;10104;50.732;10.174;2023-02-18T05:24:59;98254.88;;;9.98;100.00
19884;BME280;10104;50.732;10.174;2023-02-18T05:27:20;98255.88;;;9.97;100.00
19884;BME280;10104;50.732;10.174;2023-02-18T05:29:42;98247.41;;;10.01;100.00
19884;BME280;10104;50.732;10.174;2023-02-18T05:32:03;98246.59;;;10.01;100.00
19884;BME280;10104;50.732;10.174;2023-02-18T05:34:25;98240.41;;;10.08;100.00
19884;BME280;10104;50.732;10.174;2023-02-18T05:36:46;98231.38;;;10.03;100.00
19884;BME280;10104;50.732;10.174;2023-02-18T05:39:08;98231.63;;;9.93;100.00
19884;BME280;10104;50.732;10.174;2023-02-18T05:41:29;98238.53;;;9.94;100.00
19884;BME280;10104;50.732;10.174;2023-02-18T05:43:51;98224.13;;;9.97;100.00
19884;BME280;10104;50.732;10.174;2023-02-18T05:46:30;98233.72;;;9.98;100.00
19884;BME280;10104;50.732;10.174;2023-02-18T05:48:52;98229.88;;;10.00;100.00
19884;BME280;10104;50.732;10.174;2023-02-18T05:51:14;98242.38;;;9.92;100.00
19884;BME280;10104;50.732;10.174;2023-02-18T05:53:36;98229.25;;;9.98;100.00
19884;BME280;10104;50.732;10.174;2023-02-18T05:55:57;98233.06;;;9.96;100.00
19884;BME280;10104;50.732;10.174;2023-02-18T05:58:19;98228.59;;;9.96;100.00
19884;BME280;10104;50.732;10.174;2023-02-18T06:00:40;98230.59;;;9.94;100.00
19884;BME280;10104;50.732;10.174;2023-02-18T06:03:02;98211.44;;;9.92;100.00
19884;BME280;10104;50.732;10.174;2023-02-18T06:05:23;98226.50;;;9.92;100.00
19884;BME280;10104;50.732;10.174;2023-02-18T06:07:45;98224.47;;;9.94;100.00
19884;BME280;10104;50.732;10.174;2023-02-18T06:10:08;98219.56;;;9.91;100.00
19884;BME280;10104;50.732;10.174;2023-02-18T06:12:30;98216.53;;;9.94;100.00
19884;BME280;10104;50.732;10.174;2023-02-18T06:14:51;98205.50;;;9.90;100.00
19884;BME280;10104;50.732;10.174;2023-02-18T06:17:14;98207.59;;;9.95;100.00
19884;BME280;10104;50.732;10.174;2023-02-18T06:19:35;98202.97;;;9.97;100.00
19884;BME280;10104;50.732;10.174;2023-02-18T06:21:57;98199.34;;;9.98;100.00
19884;BME280;10104;50.732;10.174;2023-02-18T06:24:18;98196.56;;;9.91;100.00
19884;BME280;10104;50.732;10.174;2023-02-18T06:26:40;98197.16;;;10.01;100.00
19884;BME280;10104;50.732;10.174;2023-02-18T06:29:02;98200.63;;;10.02;100.00
19884;BME280;10104;50.732;10.174;2023-02-18T06:31:24;98191.03;;;10.01;100.00
19884;BME280;10104;50.732;10.174;2023-02-18T06:33:45;98200.44;;;10.03;100.00
19884;BME280;10104;50.732;10.174;2023-02-18T06:36:08;98201.72;;;10.07;100.00
19884;BME280;10104;50.732;10.174;2023-02-18T06:38:33;98192.63;;;10.10;100.00
19884;BME280;10104;50.732;10.174;2023-02-18T06:40:55;98191.25;;;10.14;100.00
19884;BME280;10104;50.732;10.174;2023-02-18T06:43:17;98189.16;;;10.09;100.00
19884;BME280;10104;50.732;10.174;2023-02-18T06:45:39;98183.16;;;10.15;100.00
19884;BME280;10104;50.732;10.174;2023-02-18T06:48:00;98179.75;;;10.07;100.00
19884;BME280;10104;50.732;10.174;2023-02-18T06:50:22;98172.63;;;10.07;100.00
19884;BME280;10104;50.732;10.174;2023-02-18T06:52:43;98173.13;;;10.11;100.00
19884;BME280;10104;50.732;10.174;2023-02-18T06:55:06;98179.84;;;10.13;100.00
19884;BME280;10104;50.732;10.174;2023-02-18T06:57:30;98169.59;;;10.19;100.00
19884;BME280;10104;50.732;10.174;2023-02-18T06:59:51;98159.03;;;10.33;100.00
19884;BME280;10104;50.732;10.174;2023-02-18T07:02:13;98158.38;;;10.31;100.00
19884;BME280;10104;50.732;10.174;2023-02-18T07:04:34;98175.22;;;10.15;100.00
19884;BME280;10104;50.732;10.174;2023-02-18T07:06:56;98146.25;;;10.22;100.00
19884;BME280;10104;50.732;10.174;2023-02-18T07:09:17;98137.94;;;10.25;100.00
19884;BME280;10104;50.732;10.174;2023-02-18T07:11:39;98151.88;;;10.19;100.00
19884;BME280;10104;50.732;10.174;2023-02-18T07:14:00;98137.13;;;10.25;100.00
19884;BME280;10104;50.732;10.174;2023-02-18T07:16:22;98136.13;;;10.26;100.00
19884;BME280;10104;50.732;10.174;2023-02-18T07:18:44;98143.34;;;10.32;100.00
19884;BME280;10104;50.732;10.174;2023-02-18T07:21:06;98127.56;;;10.38;100.00
19884;BME280;10104;50.732;10.174;2023-02-18T07:23:27;98116.78;;;10.40;100.00
19884;BME280;10104;50.732;10.174;2023-02-18T07:25:49;98125.91;;;10.37;100.00
19884;BME280;10104;50.732;10.174;2023-02-18T07:28:10;98137.53;;;10.36;100.00
19884;BME280;10104;50.732;10.174;2023-02-18T07:30:32;98133.66;;;10.39;100.00
19884;BME280;10104;50.732;10.174;2023-02-18T07:32:53;98121.63;;;10.36;100.00
19884;BME280;10104;50.732;10.174;2023-02-18T07:35:15;98127.66;;;10.45;100.00
19884;BME280;10104;50.732;10.174;2023-02-18T07:37:37;98125.72;;;10.39;100.00
19884;BME280;10104;50.732;10.174;2023-02-18T07:39:58;98106.94;;;10.48;100.00
19884;BME280;10104;50.732;10.174;2023-02-18T07:42:20;98104.75;;;10.52;100.00
19884;BME280;10104;50.732;10.174;2023-02-18T07:44:42;98109.31;;;10.58;100.00
19884;BME280;10104;50.732;10.174;2023-02-18T07:47:04;98112.41;;;10.62;100.00
19884;BME280;10104;50.732;10.174;2023-02-18T07:49:26;98115.34;;;10.67;100.00
19884;BME280;10104;50.732;10.174;2023-02-18T07:51:49;98120.28;;;10.70;100.00
19884;BME280;10104;50.732;10.174;2023-02-18T07:54:10;98118.09;;;10.73;100.00
19884;BME280;10104;50.732;10.174;2023-02-18T07:56:32;98124.66;;;10.77;100.00
19884;BME280;10104;50.732;10.174;2023-02-18T07:58:53;98133.69;;;10.83;100.00
19884;BME280;10104;50.732;10.174;2023-02-18T08:01:15;98136.25;;;10.76;100.00
19884;BME280;10104;50.732;10.174;2023-02-18T08:03:37;98132.88;;;10.82;100.00
19884;BME280;10104;50.732;10.174;2023-02-18T08:05:58;98122.91;;;10.84;100.00
19884;BME280;10104;50.732;10.174;2023-02-18T08:08:25;98122.56;;;10.73;100.00
19884;BME280;10104;50.732;10.174;2023-02-18T08:10:48;98140.00;;;10.82;100.00
19884;BME280;10104;50.732;10.174;2023-02-18T08:13:09;98114.50;;;10.81;100.00
19884;BME280;10104;50.732;10.174;2023-02-18T08:15:31;98124.94;;;10.82;100.00
19884;BME280;10104;50.732;10.174;2023-02-18T08:17:52;98118.44;;;10.85;100.00
19884;BME280;10104;50.732;10.174;2023-02-18T08:20:14;98122.91;;;10.84;100.00
19884;BME280;10104;50.732;10.174;2023-02-18T08:22:36;98120.72;;;10.88;100.00
19884;BME280;10104;50.732;10.174;2023-02-18T08:24:58;98123.09;;;10.83;100.00
19884;BME280;10104;50.732;10.174;2023-02-18T08:27:19;98121.72;;;11.02;100.00
19884;BME280;10104;50.732;10.174;2023-02-18T08:29:41;98137.25;;;11.05;100.00
19884;BME280;10104;50.732;10.174;2023-02-18T08:32:02;98118.53;;;10.91;100.00
19884;BME280;10104;50.732;10.174;2023-02-18T08:34:24;98120.81;;;10.94;100.00
19884;BME280;10104;50.732;10.174;2023-02-18T08:36:46;98127.56;;;10.82;100.00
19884;BME280;10104;50.732;10.174;2023-02-18T08:39:07;98118.81;;;10.67;100.00
19884;BME280;10104;50.732;10.174;2023-02-18T08:41:29;98124.75;;;10.69;100.00
19884;BME280;10104;50.732;10.174;2023-02-18T08:43:50;98110.13;;;10.59;100.00
19884;BME280;10104;50.732;10.174;2023-02-18T08:46:12;98115.34;;;10.67;100.00
19884;BME280;10104;50.732;10.174;2023-02-18T08:48:36;98128.13;;;10.63;100.00
19884;BME280;10104;50.732;10.174;2023-02-18T08:50:58;98105.41;;;10.54;100.00
19884;BME280;10104;50.732;10.174;2023-02-18T08:53:20;98102.63;;;10.62;100.00
19884;BME280;10104;50.732;10.174;2023-02-18T08:55:42;98090.69;;;10.66;100.00
19884;BME280;10104;50.732;10.174;2023-02-18T08:58:04;98080.72;;;10.68;100.00
19884;BME280;10104;50.732;10.174;2023-02-18T09:00:27;98088.03;;;10.66;100.00
19884;BME280;10104;50.732;10.174;2023-02-18T09:02:48;98087.56;;;10.63;100.00
19884;BME280;10104;50.732;10.174;2023-02-18T09:05:11;98069.78;;;10.71;100.00
19884;BME280;10104;50.732;10.174;2023-02-18T09:07:32;98088.66;;;10.68;100.00
19884;BME280;10104;50.732;10.174;2023-02-18T09:09:54;98077.81;;;10.63;100.00
19884;BME280;10104;50.732;10.174;2023-02-18T09:12:15;98089.50;;;10.54;100.00
19884;BME280;10104;50.732;10.174;2023-02-18T09:14:37;98079.91;;;10.38;100.00
19884;BME280;10104;50.732;10.174;2023-02-18T09:16:58;98089.50;;;10.39;100.00
19884;BME280;10104;50.732;10.174;2023-02-18T09:19:20;98103.00;;;10.30;100.00
19884;BME280;10104;50.732;10.174;2023-02-18T09:21:42;98088.75;;;10.31;100.00
19884;BME280;10104;50.732;10.174;2023-02-18T09:24:03;98094.50;;;10.20;100.00
19884;BME280;10104;50.732;10.174;2023-02-18T09:26:25;98097.34;;;10.18;100.00
19884;BME280;10104;50.732;10.174;2023-02-18T09:28:48;98085.72;;;10.19;100.00
19884;BME280;10104;50.732;10.174;2023-02-18T09:31:12;98105.91;;;10.20;100.00
19884;BME280;10104;50.732;10.174;2023-02-18T09:33:39;98105.56;;;10.23;100.00
19884;BME280;10104;50.732;10.174;2023-02-18T09:36:01;98106.28;;;10.17;100.00
19884;BME280;10104;50.732;10.174;2023-02-18T09:38:22;98114.69;;;10.12;100.00
19884;BME280;10104;50.732;10.174;2023-02-18T09:40:46;98109.84;;;10.01;100.00
19884;BME280;10104;50.732;10.174;2023-02-18T09:43:18;98105.09;;;9.97;100.00
19884;BME280;10104;50.732;10.174;2023-02-18T09:45:42;98115.91;;;10.10;100.00
19884;BME280;10104;50.732;10.174;2023-02-18T09:48:04;98125.44;;;9.96;100.00
19884;BME280;10104;50.732;10.174;2023-02-18T09:50:31;98116.28;;;9.84;100.00
19884;BME280;10104;50.732;10.174;2023-02-18T09:52:54;98095.50;;;9.81;100.00
19884;BME280;10104;50.732;10.174;2023-02-18T09:57:43;98087.75;;;9.94;100.00
19884;BME280;10104;50.732;10.174;2023-02-18T10:00:12;98106.81;;;9.90;100.00
19884;BME280;10104;50.732;10.174;2023-02-18T10:02:35;98092.53;;;9.99;100.00
19884;BME280;10104;50.732;10.174;2023-02-18T10:04:58;98103.50;;;10.10;100.00
19884;BME280;10104;50.732;10.174;2023-02-18T10:07:25;98101.56;;;10.04;100.00
19884;BME280;10104;50.732;10.174;2023-02-18T10:09:49;98097.22;;;10.11;100.00
19884;BME280;10104;50.732;10.174;2023-02-18T10:12:15;98096.78;;;10.23;100.00
19884;BME280;10104;50.732;10.174;2023-02-18T10:14:37;98089.22;;;10.34;100.00
19884;BME280;10104;50.732;10.174;2023-02-18T10:16:59;98076.81;;;10.49;100.00
19884;BME280;10104;50.732;10.174;2023-02-18T10:19:37;98073.28;;;10.42;100.00
19884;BME280;10104;50.732;10.174;2023-02-18T10:22:03;98102.63;;;10.62;100.00
19884;BME280;10104;50.732;10.174;2023-02-18T10:26:47;98086.84;;;10.69;100.00
19884;BME280;10104;50.732;10.174;2023-02-18T10:29:15;98057.91;;;10.67;100.00
19884;BME280;10104;50.732;10.174;2023-02-18T10:31:56;98065.31;;;10.57;100.00
19884;BME280;10104;50.732;10.174;2023-02-18T10:34:38;98066.94;;;10.58;100.00
19884;BME280;10104;50.732;10.174;2023-02-18T10:37:34;98040.06;;;10.76;100.00
19884;BME280;10104;50.732;10.174;2023-02-18T10:43:15;98047.34;;;11.03;99.23
19884;BME280;10104;50.732;10.174;2023-02-18T10:50:59;98072.47;;;10.92;97.32
19884;BME280;10104;50.732;10.174;2023-02-18T10:53:36;98074.41;;;10.84;96.99
19884;BME280;10104;50.732;10.174;2023-02-18T10:55:58;98050.16;;;11.02;97.04
19884;BME280;10104;50.732;10.174;2023-02-18T10:58:36;98054.06;;;11.06;96.13
19884;BME280;10104;50.732;10.174;2023-02-18T11:01:04;98060.34;;;10.98;94.61
19884;BME280;10104;50.732;10.174;2023-02-18T11:03:43;98060.69;;;10.95;96.03
19884;BME280;10104;50.732;10.174;2023-02-18T11:08:42;98058.66;;;10.61;96.84
19884;BME280;10104;50.732;10.174;2023-02-18T11:11:13;98078.09;;;10.53;95.74
19884;BME280;10104;50.732;10.174;2023-02-18T11:13:36;98071.59;;;10.71;95.44
19884;BME280;10104;50.732;10.174;2023-02-18T11:16:01;98037.97;;;10.86;93.99
19884;BME280;10104;50.732;10.174;2023-02-18T11:20:55;98018.56;;;11.64;93.94
19884;BME280;10104;50.732;10.174;2023-02-18T11:23:20;98007.56;;;11.67;92.24
19884;BME280;10104;50.732;10.174;2023-02-18T11:25:59;98000.28;;;11.48;91.13
19884;BME280;10104;50.732;10.174;2023-02-18T11:28:40;98004.13;;;11.24;90.96
19884;BME280;10104;50.732;10.174;2023-02-18T11:31:03;97996.03;;;11.53;92.90
19884;BME280;10104;50.732;10.174;2023-02-18T11:35:56;97999.00;;;11.93;90.76
19884;BME280;10104;50.732;10.174;2023-02-18T11:38:34;97995.69;;;11.63;86.49
19884;BME280;10104;50.732;10.174;2023-02-18T11:41:05;97983.09;;;11.44;87.55
19884;BME280;10104;50.732;10.174;2023-02-18T11:43:29;98003.78;;;11.55;90.01
19884;BME280;10104;50.732;10.174;2023-02-18T11:46:10;98007.41;;;11.26;89.38
19884;BME280;10104;50.732;10.174;2023-02-18T11:48:32;98021.63;;;11.40;88.64
19884;BME280;10104;50.732;10.174;2023-02-18T11:51:00;97988.03;;;11.47;88.66
19884;BME280;10104;50.732;10.174;2023-02-18T11:53:26;97994.91;;;11.41;86.89
19884;BME280;10104;50.732;10.174;2023-02-18T11:55:57;97989.75;;;11.61;87.87
19884;BME280;10104;50.732;10.174;2023-02-18T11:58:19;97978.13;;;11.62;87.57
19884;BME280;10104;50.732;10.174;2023-02-18T12:00:45;97986.69;;;11.79;88.52
19884;BME280;10104;50.732;10.174;2023-02-18T12:03:19;97996.06;;;11.81;87.78
19884;BME280;10104;50.732;10.174;2023-02-18T12:05:45;97976.50;;;11.61;89.26
19884;BME280;10104;50.732;10.174;2023-02-18T12:08:16;97984.97;;;11.50;87.76
19884;BME280;10104;50.732;10.174;2023-02-18T12:10:48;98005.16;;;11.23;89.41
19884;BME280;10104;50.732;10.174;2023-02-18T12:13:36;97992.13;;;10.85;92.83
19884;BME280;10104;50.732;10.174;2023-02-18T12:21:14;97987.00;;;10.48;98.46
19884;BME280;10104;50.732;10.174;2023-02-18T12:26:47;98017.28;;;10.31;100.00
19884;BME280;10104;50.732;10.174;2023-02-18T12:37:22;98006.56;;;10.18;99.96
19884;BME280;10104;50.732;10.174;2023-02-18T12:40:05;98016.59;;;10.22;100.00
19884;BME280;10104;50.732;10.174;2023-02-18T12:53:23;98023.19;;;10.03;100.00
19884;BME280;10104;50.732;10.174;2023-02-18T13:04:18;98008.22;;;10.69;98.58
19884;BME280;10104;50.732;10.174;2023-02-18T13:12:27;98025.94;;;10.69;96.21
19884;BME280;10104;50.732;10.174;2023-02-18T13:14:59;98018.22;;;10.88;96.92
19884;BME280;10104;50.732;10.174;2023-02-18T13:17:25;98017.78;;;10.85;97.44
19884;BME280;10104;50.732;10.174;2023-02-18T13:20:02;98010.66;;;10.85;96.10
19884;BME280;10104;50.732;10.174;2023-02-18T13:22:26;98010.66;;;10.85;98.15
19884;BME280;10104;50.732;10.174;2023-02-18T13:24:49;98017.63;;;10.72;97.71
19884;BME280;10104;50.732;10.174;2023-02-18T13:27:13;98029.66;;;10.74;98.79
19884;BME280;10104;50.732;10.174;2023-02-18T13:29:46;98008.47;;;10.74;98.18
19884;BME280;10104;50.732;10.174;2023-02-18T13:32:29;98028.50;;;10.62;97.79
19884;BME280;10104;50.732;10.174;2023-02-18T13:34:57;98022.66;;;10.37;98.02
19884;BME280;10104;50.732;10.174;2023-02-18T13:37:34;98012.19;;;10.29;99.25
19884;BME280;10104;50.732;10.174;2023-02-18T13:39:58;98003.78;;;10.26;100.00
19884;BME280;10104;50.732;10.174;2023-02-18T13:47:35;98019.22;;;10.22;99.62
19884;BME280;10104;50.732;10.174;2023-02-18T13:49:57;98019.59;;;10.34;99.28
19884;BME280;10104;50.732;10.174;2023-02-18T13:52:19;98025.63;;;10.28;100.00
19884;BME280;10104;50.732;10.174;2023-02-18T13:54:43;98026.06;;;10.31;100.00
19884;BME280;10104;50.732;10.174;2023-02-18T13:57:19;98027.00;;;10.24;100.00
19884;BME280;10104;50.732;10.174;2023-02-18T13:59:49;98035.66;;;10.18;100.00
19884;BME280;10104;50.732;10.174;2023-02-18T14:09:55;98019.41;;;10.21;100.00
19884;BME280;10104;50.732;10.174;2023-02-18T14:14:51;98032.47;;;10.22;100.00
19884;BME280;10104;50.732;10.174;2023-02-18T14:19:40;98023.69;;;10.22;100.00